Time;durP1;ratioP1;P1;durP2;ratioP2;P2;SDS_P1;SDS_P2;PMS_P1;PMS_P2;Temp;Humidity;BMP_temperature;BMP_pressure;BME280_temperature;BME280_humidity;BME280_pressure;Samples;Min_cycle;Max_cycle;Signal;HPM_P1;HPM_P2
2022/03/10 00:01:51;;;;;;;16.07;10.50;;;4.30;99.90;;;;;;5090569;28;20703;-85
2022/03/10 00:04:17;;;;;;;16.70;10.90;;;4.30;99.90;;;;;;5091290;28;20435;-83
2022/03/10 00:06:42;;;;;;;19.07;11.83;;;4.30;99.90;;;;;;5090684;28;20315;-83
2022/03/10 00:09:08;;;;;;;15.43;10.40;;;4.30;99.90;;;;;;5090813;28;20362;-83
2022/03/10 00:11:33;;;;;;;17.77;10.60;;;4.40;99.90;;;;;;5093620;28;20181;-83
2022/03/10 00:13:59;;;;;;;17.53;11.83;;;4.30;99.90;;;;;;5094794;28;20189;-83
2022/03/10 00:16:25;;;;;;;17.63;10.90;;;4.30;99.90;;;;;;5094433;28;20189;-84
2022/03/10 00:18:51;;;;;;;19.70;10.60;;;4.30;99.90;;;;;;5094435;28;20205;-83
2022/03/10 00:21:16;;;;;;;17.50;11.67;;;4.20;99.90;;;;;;5094722;28;20923;-82
2022/03/10 00:23:42;;;;;;;18.30;11.20;;;4.10;99.90;;;;;;5094397;28;20653;-84
2022/03/10 00:26:07;;;;;;;22.37;11.70;;;4.10;99.90;;;;;;5095655;28;20184;-83
2022/03/10 00:28:33;;;;;;;22.23;12.67;;;4.10;99.90;;;;;;5094042;28;20644;-83
2022/03/10 00:30:59;;;;;;;18.33;11.90;;;4.00;99.90;;;;;;5094474;28;20177;-83
2022/03/10 00:33:25;;;;;;;18.17;10.73;;;4.00;99.90;;;;;;5095591;28;20514;-83
2022/03/10 00:35:51;;;;;;;18.00;11.90;;;;;;;;;;5094268;28;20849;-82
2022/03/10 00:38:17;;;;;;;17.63;12.00;;;3.90;99.90;;;;;;5094233;28;20432;-82
2022/03/10 00:40:43;;;;;;;16.97;10.50;;;3.90;99.90;;;;;;5094465;28;20885;-82
2022/03/10 00:43:13;;;;;;;14.50;9.90;;;3.90;99.90;;;;;;5095796;28;20414;-83
2022/03/10 00:45:39;;;;;;;19.83;12.90;;;3.80;99.90;;;;;;5095410;28;20214;-83
2022/03/10 00:48:04;;;;;;;18.57;11.43;;;3.80;99.90;;;;;;5093634;28;20489;-84
2022/03/10 00:50:32;;;;;;;17.93;11.30;;;3.70;99.90;;;;;;5093848;28;20428;-83
2022/03/10 00:52:59;;;;;;;14.97;11.50;;;3.70;99.90;;;;;;5095470;28;20186;-83
2022/03/10 00:55:25;;;;;;;19.17;12.73;;;3.70;99.90;;;;;;5093994;28;20949;-83
2022/03/10 00:57:51;;;;;;;19.47;11.77;;;3.60;99.90;;;;;;5093554;28;20424;-84
2022/03/10 01:00:18;;;;;;;21.90;10.90;;;3.60;99.90;;;;;;5095080;28;20451;-83
2022/03/10 01:02:44;;;;;;;17.23;12.17;;;3.50;99.90;;;;;;5093633;28;20428;-82
2022/03/10 01:05:10;;;;;;;14.73;11.10;;;3.50;99.90;;;;;;5093674;28;20808;-83
2022/03/10 01:07:36;;;;;;;20.33;12.67;;;3.50;99.90;;;;;;5093512;28;20452;-83
2022/03/10 01:10:04;;;;;;;16.27;10.73;;;3.50;99.90;;;;;;5093679;28;20423;-82
2022/03/10 01:12:30;;;;;;;18.60;12.27;;;3.50;99.90;;;;;;5094823;28;21094;-82
2022/03/10 01:14:55;;;;;;;27.03;13.33;;;3.50;99.90;;;;;;5093552;28;20428;-83
2022/03/10 01:17:21;;;;;;;19.77;11.23;;;3.50;99.90;;;;;;5092925;28;20184;-83
2022/03/10 01:19:47;;;;;;;18.13;11.33;;;3.50;99.90;;;;;;5093214;28;20205;-83
2022/03/10 01:22:13;;;;;;;17.67;10.60;;;3.40;99.90;;;;;;5094440;28;20181;-83
2022/03/10 01:24:41;;;;;;;18.60;11.03;;;3.40;99.90;;;;;;5092648;28;20936;-83
2022/03/10 01:27:07;;;;;;;18.20;10.60;;;3.30;99.90;;;;;;5093081;28;20691;-83
2022/03/10 01:29:32;;;;;;;19.33;11.53;;;3.30;99.90;;;;;;5092931;28;20445;-82
2022/03/10 01:31:58;;;;;;;17.50;11.47;;;3.30;99.90;;;;;;5094028;28;20415;-82
2022/03/10 01:34:24;;;;;;;19.40;11.90;;;3.30;99.90;;;;;;5092821;28;20265;-83
2022/03/10 01:36:49;;;;;;;17.30;11.33;;;3.30;99.90;;;;;;5093796;28;20189;-83
2022/03/10 01:39:15;;;;;;;20.00;11.70;;;3.30;99.90;;;;;;5092619;28;20208;-83
2022/03/10 01:41:40;;;;;;;16.07;10.90;;;3.30;99.90;;;;;;5092675;28;20177;-82
2022/03/10 01:44:08;;;;;;;16.87;12.00;;;3.30;99.90;;;;;;5093884;28;20173;-83
2022/03/10 01:46:34;;;;;;;18.73;12.47;;;3.20;99.90;;;;;;5092230;28;20272;-82
2022/03/10 01:49:00;;;;;;;16.60;10.87;;;3.20;99.90;;;;;;5092464;28;20492;-83
2022/03/10 01:51:27;;;;;;;17.20;11.63;;;3.20;99.90;;;;;;5092712;28;20427;-83
2022/03/10 01:53:53;;;;;;;20.80;10.77;;;3.30;99.90;;;;;;5092430;28;20419;-83
2022/03/10 01:56:21;;;;;;;17.50;10.30;;;3.20;99.90;;;;;;5093548;28;20414;-83
2022/03/10 01:58:48;;;;;;;12.70;10.53;;;3.20;99.90;;;;;;5092138;28;20499;-82
2022/03/10 02:01:15;;;;;;;19.20;10.73;;;3.30;99.90;;;;;;5092294;28;20421;-83
2022/03/10 02:03:41;;;;;;;21.37;10.40;;;3.30;99.90;;;;;;5092296;28;20971;-83
2022/03/10 02:06:08;;;;;;;16.10;10.47;;;3.30;99.90;;;;;;5093392;28;20411;-83
2022/03/10 02:11:29;;;;;;;16.90;10.10;;;3.30;99.90;;;;;;5038252;28;20421;-83
2022/03/10 02:13:55;;;;;;;13.73;9.87;;;3.30;99.90;;;;;;5092338;28;20397;-83
2022/03/10 02:19:05;;;;;;;14.50;10.20;;;3.30;99.90;;;;;;5093468;28;20466;-84
2022/03/10 02:21:30;;;;;;;23.40;11.20;;;3.30;99.90;;;;;;5091995;28;20417;-83
2022/03/10 02:23:56;;;;;;;18.40;11.30;;;3.30;99.90;;;;;;5092022;28;20182;-83
2022/03/10 02:26:22;;;;;;;16.90;11.03;;;3.20;99.90;;;;;;5091691;28;20192;-81
2022/03/10 02:28:49;;;;;;;16.00;10.00;;;3.20;99.90;;;;;;5091834;28;20289;-83
2022/03/10 02:31:14;;;;;;;15.17;11.00;;;3.20;99.90;;;;;;5091814;28;20201;-82
2022/03/10 02:33:40;;;;;;;21.50;11.97;;;3.20;99.90;;;;;;5093075;28;20408;-82
2022/03/10 02:36:06;;;;;;;19.60;11.90;;;3.10;99.90;;;;;;5090639;28;20189;-83
2022/03/10 02:38:32;;;;;;;17.33;11.20;;;3.10;99.90;;;;;;5091294;28;21074;-83
2022/03/10 02:40:57;;;;;;;17.23;11.23;;;3.10;99.90;;;;;;5091816;28;20184;-83
2022/03/10 02:43:24;;;;;;;16.90;10.50;;;3.00;99.90;;;;;;5091474;28;20188;-83
2022/03/10 02:45:50;;;;;;;20.50;12.20;;;3.00;99.90;;;;;;5091505;28;20198;-83
2022/03/10 02:48:16;;;;;;;17.30;9.50;;;3.00;99.90;;;;;;5092419;28;20446;-83
2022/03/10 02:50:46;;;;;;;15.40;10.77;;;2.90;99.90;;;;;;5091652;28;20499;-83
2022/03/10 02:53:12;;;;;;;14.50;10.63;;;2.90;99.90;;;;;;5091482;28;20424;-83
2022/03/10 02:55:39;;;;;;;17.50;10.57;;;2.90;99.90;;;;;;5092520;28;20413;-83
2022/03/10 02:58:05;;;;;;;17.57;11.03;;;2.80;99.90;;;;;;5091127;28;20436;-82
2022/03/10 03:00:30;;;;;;;17.73;12.00;;;2.70;99.90;;;;;;5092515;28;20896;-84
2022/03/10 03:02:56;;;;;;;21.90;10.23;;;2.70;99.90;;;;;;5092523;28;20250;-83
2022/03/10 03:05:22;;;;;;;19.20;10.17;;;2.80;99.90;;;;;;5091095;28;20180;-83
2022/03/10 03:07:50;;;;;;;15.93;11.43;;;2.80;99.90;;;;;;5090855;28;20179;-82
2022/03/10 03:10:16;;;;;;;17.93;11.70;;;2.90;99.90;;;;;;5091087;28;20179;-83
2022/03/10 03:12:47;;;;;;;14.97;10.43;;;2.80;99.90;;;;;;5091167;28;20486;-83
2022/03/10 03:15:13;;;;;;;15.00;9.90;;;2.90;99.90;;;;;;5090992;28;20493;-83
2022/03/10 03:17:38;;;;;;;17.70;11.20;;;2.80;99.90;;;;;;5090627;28;20928;-83
2022/03/10 03:20:04;;;;;;;18.43;11.40;;;2.80;99.90;;;;;;5090844;28;20448;-83
2022/03/10 03:22:31;;;;;;;17.83;10.80;;;2.90;99.90;;;;;;5091153;28;20242;-83
2022/03/10 03:24:57;;;;;;;16.63;10.27;;;2.90;99.90;;;;;;5090997;28;20774;-83
2022/03/10 03:27:23;;;;;;;14.63;10.60;;;2.90;99.90;;;;;;5090568;28;20444;-83
2022/03/10 03:29:48;;;;;;;15.40;9.80;;;2.90;99.90;;;;;;5092040;28;20486;-83
2022/03/10 03:32:14;;;;;;;18.57;10.90;;;2.90;99.90;;;;;;5090884;28;20454;-83
2022/03/10 03:34:39;;;;;;;17.90;11.30;;;2.90;99.90;;;;;;5090915;28;20202;-83
2022/03/10 03:37:05;;;;;;;16.43;11.00;;;2.70;99.90;;;;;;5090446;28;20758;-83
2022/03/10 03:39:31;;;;;;;17.80;10.37;;;2.70;99.90;;;;;;5091986;28;20208;-83
2022/03/10 03:41:57;;;;;;;18.17;10.30;;;2.70;99.90;;;;;;5090775;28;20172;-83
2022/03/10 03:44:23;;;;;;;17.20;10.50;;;2.70;99.90;;;;;;5092010;28;20417;-83
2022/03/10 03:46:48;;;;;;;16.90;10.37;;;2.80;99.90;;;;;;5092155;28;20179;-82
2022/03/10 03:49:14;;;;;;;16.80;9.60;;;2.80;99.90;;;;;;5094827;28;20584;-82
2022/03/10 03:51:40;;;;;;;22.80;11.43;;;2.80;99.90;;;;;;5094699;28;20507;-83
2022/03/10 03:54:07;;;;;;;18.43;10.20;;;2.90;99.90;;;;;;5094884;28;20284;-82
2022/03/10 03:56:34;;;;;;;16.27;10.90;;;2.90;99.90;;;;;;5094240;28;20182;-82
2022/03/10 03:58:59;;;;;;;16.50;10.90;;;2.90;99.90;;;;;;5094575;28;20457;-83
2022/03/10 04:01:25;;;;;;;15.27;10.20;;;2.90;99.90;;;;;;5094653;28;20504;-82
2022/03/10 04:03:51;;;;;;;17.70;10.20;;;2.90;99.90;;;;;;5095863;28;20177;-82
2022/03/10 04:06:16;;;;;;;16.23;12.43;;;2.90;99.90;;;;;;5095701;28;20167;-83
2022/03/10 04:08:42;;;;;;;18.07;13.27;;;2.90;99.90;;;;;;5095473;28;20256;-83
2022/03/10 04:11:08;;;;;;;19.57;11.57;;;2.80;99.90;;;;;;5094623;28;20207;-83
2022/03/10 04:13:33;;;;;;;18.97;11.50;;;2.80;99.90;;;;;;5094320;28;20174;-82
2022/03/10 04:15:59;;;;;;;20.27;13.37;;;2.70;99.90;;;;;;5094278;28;20590;-82
2022/03/10 04:18:24;;;;;;;20.40;13.10;;;2.60;99.90;;;;;;5093995;28;20199;-83
2022/03/10 04:20:50;;;;;;;16.87;11.27;;;2.70;99.90;;;;;;5095481;28;20212;-83
2022/03/10 04:23:16;;;;;;;20.93;12.73;;;2.70;99.90;;;;;;5091859;28;20179;-83
2022/03/10 04:25:42;;;;;;;20.70;10.93;;;2.70;99.90;;;;;;5094077;28;20175;-83
2022/03/10 04:28:09;;;;;;;19.70;11.87;;;2.70;99.90;;;;;;5093778;28;20457;-82
2022/03/10 04:30:34;;;;;;;19.10;11.07;;;2.60;99.90;;;;;;5094168;28;20558;-83
2022/03/10 04:33:01;;;;;;;21.00;12.40;;;2.70;99.90;;;;;;5094171;28;20418;-84
2022/03/10 04:35:27;;;;;;;13.80;10.70;;;2.70;99.90;;;;;;5094328;28;20243;-81
2022/03/10 04:37:53;;;;;;;19.60;11.70;;;2.60;99.90;;;;;;5093679;28;20925;-84
2022/03/10 04:40:20;;;;;;;24.93;10.80;;;2.70;99.90;;;;;;5095074;28;20484;-83
2022/03/10 04:42:46;;;;;;;16.70;11.10;;;2.60;99.90;;;;;;5093946;28;20478;-81
2022/03/10 04:45:12;;;;;;;17.73;10.37;;;2.60;99.90;;;;;;5095104;28;20411;-82
2022/03/10 04:47:41;;;;;;;16.23;10.83;;;2.60;99.90;;;;;;5094833;28;20504;-82
2022/03/10 04:52:35;;;;;;;18.33;11.97;;;2.60;99.90;;;;;;5071187;28;20475;-67
2022/03/10 04:55:01;;;;;;;14.40;10.70;;;2.60;99.90;;;;;;5056500;28;20991;-67
2022/03/10 04:57:30;;;;;;;19.87;10.43;;;2.60;99.90;;;;;;5055367;28;20713;-66
2022/03/10 04:59:55;;;;;;;16.00;10.50;;;2.60;99.90;;;;;;5055809;28;21034;-67
2022/03/10 05:02:22;;;;;;;18.23;10.73;;;2.60;99.90;;;;;;5056258;28;20505;-66
2022/03/10 05:04:48;;;;;;;20.43;11.13;;;2.60;99.90;;;;;;5056047;28;20175;-67
2022/03/10 05:07:14;;;;;;;19.33;11.30;;;2.60;99.90;;;;;;5055782;28;20526;-67
2022/03/10 05:09:39;;;;;;;15.90;9.80;;;2.60;99.90;;;;;;5056059;28;20909;-66
2022/03/10 05:12:05;;;;;;;15.67;10.57;;;2.60;99.90;;;;;;5055983;28;20635;-67
2022/03/10 05:14:31;;;;;;;17.80;11.30;;;2.60;99.90;;;;;;5056351;28;20208;-67
2022/03/10 05:16:57;;;;;;;19.67;10.20;;;2.60;99.90;;;;;;5055590;28;20530;-67
2022/03/10 05:19:23;;;;;;;15.53;10.40;;;2.60;99.90;;;;;;5056074;28;20210;-66
2022/03/10 05:21:50;;;;;;;17.77;10.53;;;2.70;99.90;;;;;;5055730;28;20657;-67
2022/03/10 05:24:16;;;;;;;14.30;10.50;;;2.70;99.90;;;;;;5055932;28;20900;-67
2022/03/10 05:26:42;;;;;;;16.10;11.33;;;2.70;99.90;;;;;;5055329;28;20442;-67
2022/03/10 05:29:11;;;;;;;13.27;10.17;;;2.70;99.90;;;;;;5055692;28;20422;-67
2022/03/10 05:31:38;;;;;;;17.87;11.00;;;2.70;99.90;;;;;;5055555;28;20191;-67
2022/03/10 05:34:03;;;;;;;18.20;10.73;;;2.80;99.90;;;;;;5055599;28;20435;-67
2022/03/10 05:36:29;;;;;;;18.03;11.00;;;2.80;99.90;;;;;;5055084;28;20446;-68
2022/03/10 05:38:55;;;;;;;15.70;10.37;;;2.80;99.90;;;;;;5055370;28;20232;-67
2022/03/10 05:41:21;;;;;;;18.77;10.47;;;2.80;99.90;;;;;;5055582;28;20438;-66
2022/03/10 05:43:46;;;;;;;17.77;11.60;;;2.80;99.90;;;;;;5055411;28;20172;-67
2022/03/10 05:46:12;;;;;;;16.93;10.23;;;2.80;99.90;;;;;;5055191;28;20200;-66
2022/03/10 05:48:38;;;;;;;15.90;10.90;;;2.80;99.90;;;;;;5055073;28;20208;-66
2022/03/10 05:51:04;;;;;;;16.37;10.40;;;2.80;99.90;;;;;;5055053;28;20245;-68
2022/03/10 05:53:29;;;;;;;16.93;10.63;;;2.80;99.90;;;;;;5055064;28;20187;-67
2022/03/10 05:55:55;;;;;;;21.40;9.97;;;2.80;99.90;;;;;;5054999;28;20245;-66
2022/03/10 05:58:21;;;;;;;15.47;10.20;;;2.80;99.90;;;;;;5055229;28;20596;-66
2022/03/10 06:00:47;;;;;;;16.30;9.77;;;2.70;99.90;;;;;;5055081;28;20674;-66
2022/03/10 06:03:12;;;;;;;19.00;11.13;;;2.70;99.90;;;;;;5054953;28;20189;-67
2022/03/10 06:05:38;;;;;;;14.30;10.13;;;2.70;99.90;;;;;;5054723;28;20948;-67
2022/03/10 06:08:04;;;;;;;19.13;10.00;;;2.70;99.90;;;;;;5054761;28;20179;-68
2022/03/10 06:10:30;;;;;;;16.60;9.63;;;2.70;99.90;;;;;;5054445;28;20207;-66
2022/03/10 06:12:56;;;;;;;16.97;10.70;;;2.70;99.90;;;;;;5054910;28;20436;-66
2022/03/10 06:15:22;;;;;;;14.73;10.60;;;2.80;99.90;;;;;;5054665;28;20621;-66
2022/03/10 06:17:48;;;;;;;14.60;9.30;;;2.80;99.90;;;;;;5054518;28;20740;-66
2022/03/10 06:20:14;;;;;;;18.10;11.20;;;2.80;99.90;;;;;;5054408;28;20559;-66
2022/03/10 06:22:41;;;;;;;15.63;10.47;;;2.80;99.90;;;;;;5054576;28;20619;-67
2022/03/10 06:25:09;;;;;;;15.03;10.07;;;2.80;99.90;;;;;;5054461;28;20415;-67
2022/03/10 06:27:35;;;;;;;17.20;11.00;;;2.90;99.90;;;;;;5054271;28;20493;-67
2022/03/10 06:30:01;;;;;;;20.20;11.27;;;2.90;99.90;;;;;;5054385;28;20459;-67
2022/03/10 06:32:27;;;;;;;17.07;10.30;;;2.90;99.90;;;;;;5054428;28;20433;-68
2022/03/10 06:34:56;;;;;;;18.20;10.77;;;2.90;99.90;;;;;;5054324;28;20270;-66
2022/03/10 06:37:22;;;;;;;17.53;10.90;;;2.90;99.90;;;;;;5053908;28;20806;-67
2022/03/10 06:39:48;;;;;;;13.83;10.50;;;3.00;99.90;;;;;;5054408;28;20465;-67
2022/03/10 06:42:14;;;;;;;15.67;10.23;;;3.00;99.90;;;;;;5054211;28;20768;-66
2022/03/10 06:44:40;;;;;;;15.40;10.10;;;3.10;99.90;;;;;;5054292;28;20421;-67
2022/03/10 06:47:08;;;;;;;15.23;10.83;;;3.20;99.90;;;;;;5053787;28;20856;-67
2022/03/10 06:49:34;;;;;;;21.83;10.53;;;3.20;99.90;;;;;;5053950;28;20440;-66
2022/03/10 06:52:00;;;;;;;17.30;10.83;;;3.20;99.90;;;;;;5053695;28;20917;-67
2022/03/10 06:54:26;;;;;;;15.87;11.63;;;3.20;99.90;;;;;;5054070;28;20276;-68
2022/03/10 06:56:51;;;;;;;14.53;10.00;;;3.30;99.90;;;;;;5053691;28;20199;-66
2022/03/10 06:59:17;;;;;;;18.37;10.50;;;3.30;99.90;;;;;;5054000;28;20683;-66
2022/03/10 07:01:43;;;;;;;19.17;9.97;;;3.40;99.90;;;;;;5071934;28;20423;-66
2022/03/10 07:04:09;;;;;;;16.63;11.97;;;3.40;99.90;;;;;;5053891;28;20266;-67
2022/03/10 07:06:35;;;;;;;16.70;11.00;;;3.50;99.90;;;;;;5053623;28;20318;-66
2022/03/10 07:09:02;;;;;;;15.57;10.60;;;3.60;99.90;;;;;;5053723;28;20528;-67
2022/03/10 07:11:28;;;;;;;15.30;10.00;;;3.60;99.90;;;;;;5054054;28;20423;-68
2022/03/10 07:13:53;;;;;;;16.33;9.90;;;3.70;99.90;;;;;;5053871;28;21008;-66
2022/03/10 07:16:19;;;;;;;15.33;10.30;;;3.70;99.90;;;;;;5053608;28;20222;-66
2022/03/10 07:18:50;;;;;;;14.87;10.40;;;3.80;99.90;;;;;;5053497;28;20221;-66
2022/03/10 07:21:18;;;;;;;14.70;9.93;;;3.90;99.90;;;;;;5053147;28;20433;-66
2022/03/10 07:23:44;;;;;;;17.70;10.60;;;4.00;99.90;;;;;;5053646;28;20803;-65
2022/03/10 07:26:10;;;;;;;17.67;11.00;;;4.10;99.90;;;;;;5053553;28;20442;-66
2022/03/10 07:28:42;;;;;;;18.70;10.83;;;4.20;99.90;;;;;;5053634;28;20429;-66
2022/03/10 07:31:08;;;;;;;17.77;12.03;;;4.30;99.90;;;;;;5053671;28;20998;-66
2022/03/10 07:33:34;;;;;;;17.97;11.50;;;4.40;99.90;;;;;;5053942;28;20851;-66
2022/03/10 07:36:00;;;;;;;16.87;11.33;;;4.50;99.90;;;;;;5053457;28;20440;-66
2022/03/10 07:38:25;;;;;;;17.30;11.23;;;4.60;99.90;;;;;;5053393;28;20179;-67
2022/03/10 07:40:51;;;;;;;19.70;12.30;;;4.70;99.90;;;;;;5053423;28;20215;-67
2022/03/10 07:43:17;;;;;;;20.63;10.47;;;4.80;99.90;;;;;;5053834;28;20183;-69
2022/03/10 07:45:44;;;;;;;18.23;11.50;;;4.90;99.90;;;;;;5053374;28;20183;-66
2022/03/10 07:48:09;;;;;;;16.10;10.70;;;5.10;99.90;;;;;;5053236;28;20451;-67
2022/03/10 07:50:35;;;;;;;17.53;10.50;;;5.20;99.90;;;;;;5053285;28;20942;-66
2022/03/10 07:53:01;;;;;;;14.13;10.27;;;5.30;99.90;;;;;;5053467;28;20179;-66
2022/03/10 07:55:27;;;;;;;16.03;10.80;;;5.60;99.90;;;;;;5053432;28;20565;-64
2022/03/10 07:57:53;;;;;;;17.43;11.30;;;5.60;99.90;;;;;;5053678;28;20215;-64
2022/03/10 08:00:19;;;;;;;16.93;10.07;;;5.80;99.90;;;;;;5053372;28;20469;-64
2022/03/10 08:02:45;;;;;;;14.60;10.10;;;6.00;99.90;;;;;;5053348;28;20414;-64
2022/03/10 08:05:11;;;;;;;15.83;9.23;;;6.20;99.90;;;;;;5053464;28;20183;-64
2022/03/10 08:07:37;;;;;;;13.30;9.13;;;6.30;99.90;;;;;;5047987;28;20524;-64
2022/03/10 08:10:04;;;;;;;20.63;9.90;;;6.50;99.90;;;;;;5047080;28;20430;-64
2022/03/10 08:12:32;;;;;;;17.10;10.03;;;6.60;99.90;;;;;;5052558;28;20522;-64
2022/03/10 08:14:58;;;;;;;14.63;8.90;;;6.70;98.80;;;;;;5052452;28;20439;-63
2022/03/10 08:17:25;;;;;;;18.67;9.47;;;6.90;99.60;;;;;;5052360;28;20530;-65
2022/03/10 08:19:52;;;;;;;12.73;9.13;;;7.00;97.80;;;;;;5043047;28;20524;-63
2022/03/10 08:22:19;;;;;;;19.70;10.40;;;7.10;97.30;;;;;;5049915;28;20427;-65
2022/03/10 08:24:45;;;;;;;17.17;10.37;;;7.20;97.20;;;;;;5052911;28;20458;-64
2022/03/10 08:27:12;;;;;;;18.57;10.13;;;7.30;96.90;;;;;;5052356;28;20442;-64
2022/03/10 08:29:38;;;;;;;15.50;10.50;;;7.40;95.80;;;;;;5052834;28;20435;-63
2022/03/10 08:32:04;;;;;;;17.63;9.63;;;7.50;96.10;;;;;;5053180;28;20424;-64
2022/03/10 08:34:30;;;;;;;14.70;9.30;;;7.60;94.80;;;;;;5056415;28;20194;-64
2022/03/10 08:36:56;;;;;;;18.60;10.30;;;7.80;94.60;;;;;;5055933;28;20448;-64
2022/03/10 08:39:22;;;;;;;18.77;10.70;;;7.90;93.90;;;;;;5056290;28;20459;-63
2022/03/10 08:41:49;;;;;;;16.53;9.93;;;8.10;94.70;;;;;;5055673;28;20982;-64
2022/03/10 08:44:16;;;;;;;13.40;9.20;;;8.20;92.60;;;;;;5050140;28;20282;-64
2022/03/10 08:46:41;;;;;;;13.87;7.57;;;8.40;92.10;;;;;;5036078;28;20810;-64
2022/03/10 08:49:07;;;;;;;11.93;7.17;;;8.50;91.80;;;;;;5035990;28;20418;-64
2022/03/10 08:51:33;;;;;;;10.43;7.57;;;8.60;91.30;;;;;;5035876;28;20472;-64
2022/03/10 08:53:59;;;;;;;13.13;7.27;;;8.60;90.90;;;;;;5035848;28;20436;-64
2022/03/10 08:56:25;;;;;;;14.57;7.07;;;8.80;91.00;;;;;;5036158;28;20211;-65
2022/03/10 08:58:50;;;;;;;11.87;6.70;;;8.90;90.40;;;;;;5036078;28;20231;-63
2022/03/10 09:01:16;;;;;;;10.33;6.00;;;9.00;90.50;;;;;;5036441;28;20685;-67
2022/03/10 09:03:42;;;;;;;14.17;8.27;;;9.10;88.50;;;;;;5036204;28;20206;-67
2022/03/10 09:06:10;;;;;;;11.00;6.70;;;9.30;88.30;;;;;;5036006;28;20294;-66
2022/03/10 09:08:36;;;;;;;11.27;6.90;;;9.40;89.80;;;;;;5035983;28;20213;-66
2022/03/10 09:11:02;;;;;;;17.53;9.03;;;9.50;87.50;;;;;;5036104;28;20802;-67
2022/03/10 09:13:28;;;;;;;14.77;8.33;;;9.70;85.80;;;;;;5036040;28;20433;-67
2022/03/10 09:15:55;;;;;;;13.30;7.90;;;9.80;83.40;;;;;;5036126;28;20790;-67
2022/03/10 09:18:20;;;;;;;13.10;8.00;;;9.90;81.10;;;;;;5052381;28;20815;-67
2022/03/10 09:20:46;;;;;;;13.50;7.83;;;10.00;80.90;;;;;;5035876;28;20458;-66
2022/03/10 09:23:12;;;;;;;12.03;8.00;;;10.00;77.70;;;;;;5035846;28;20788;-66
2022/03/10 09:25:38;;;;;;;14.03;8.00;;;10.10;78.90;;;;;;5035638;28;20426;-67
2022/03/10 09:28:05;;;;;;;13.73;8.80;;;10.30;79.20;;;;;;5035463;28;20717;-67
2022/03/10 09:30:31;;;;;;;13.70;7.93;;;10.30;77.30;;;;;;5035832;28;20956;-67
2022/03/10 09:32:57;;;;;;;13.47;8.90;;;10.50;74.20;;;;;;5035742;28;20475;-67
2022/03/10 09:35:25;;;;;;;11.30;7.80;;;10.60;73.80;;;;;;5035587;28;20422;-67
2022/03/10 09:37:52;;;;;;;11.90;8.23;;;10.80;73.50;;;;;;5035306;28;20449;-67
2022/03/10 09:40:18;;;;;;;16.63;8.37;;;10.90;72.60;;;;;;5035607;28;20461;-64
2022/03/10 09:42:47;;;;;;;13.13;8.27;;;11.10;72.60;;;;;;5035547;28;20460;-64
2022/03/10 09:45:14;;;;;;;14.17;8.60;;;11.20;71.20;;;;;;5034798;28;20913;-65
2022/03/10 09:47:42;;;;;;;14.87;8.70;;;11.40;70.10;;;;;;5035131;28;20437;-66
2022/03/10 09:50:12;;;;;;;16.07;8.70;;;11.50;69.70;;;;;;5035261;28;20499;-66
2022/03/10 09:52:38;;;;;;;18.80;9.60;;;11.70;68.50;;;;;;5035300;28;20777;-64
2022/03/10 09:55:06;;;;;;;14.43;8.20;;;11.80;68.90;;;;;;5035263;28;20795;-66
2022/03/10 09:57:35;;;;;;;14.30;8.30;;;11.80;66.20;;;;;;5035000;28;20438;-64
2022/03/10 10:00:01;;;;;;;15.80;8.80;;;11.90;65.30;;;;;;5035070;28;20474;-64
2022/03/10 10:02:27;;;;;;;15.33;8.90;;;12.10;63.00;;;;;;5035134;28;20418;-66
2022/03/10 10:04:55;;;;;;;19.67;8.33;;;12.20;62.30;;;;;;5035039;28;20575;-65
2022/03/10 10:07:25;;;;;;;16.80;9.43;;;12.30;63.20;;;;;;5038576;28;20817;-65
2022/03/10 10:09:56;;;;;;;14.20;9.27;;;12.50;61.50;;;;;;5046358;28;20833;-65
2022/03/10 10:12:29;;;;;;;17.00;9.60;;;12.90;61.50;;;;;;5054621;28;20793;-65
2022/03/10 10:14:57;;;;;;;12.53;8.90;;;17.20;57.60;;;;;;5054604;28;20421;-65
2022/03/10 10:17:30;;;;;;;14.33;7.90;;;17.30;57.10;;;;;;5054000;28;20445;-65
2022/03/10 10:19:57;;;;;;;13.20;7.87;;;19.60;50.20;;;;;;5054412;28;20473;-65
2022/03/10 10:22:24;;;;;;;15.40;9.23;;;21.60;45.00;;;;;;5053949;28;20413;-65
2022/03/10 10:24:52;;;;;;;15.00;8.60;;;22.90;40.20;;;;;;5054295;28;20421;-65
2022/03/10 10:27:23;;;;;;;14.77;10.40;;;24.50;37.30;;;;;;5054009;28;20455;-66
2022/03/10 10:29:54;;;;;;;14.70;10.03;;;25.60;33.70;;;;;;5054422;28;21021;-65
2022/03/10 10:32:43;;;;;;;14.90;10.00;;;25.70;31.70;;;;;;5054261;28;20420;-65
2022/03/10 10:35:16;;;;;;;18.53;11.90;;;26.80;30.90;;;;;;5054112;28;20440;-65
2022/03/10 10:37:44;;;;;;;14.97;10.00;;;27.20;28.80;;;;;;5053811;28;20451;-65
2022/03/10 10:40:10;;;;;;;16.00;10.57;;;27.50;28.10;;;;;;5053892;28;20500;-67
2022/03/10 10:42:38;;;;;;;14.37;9.57;;;28.00;27.00;;;;;;5053991;28;20799;-66
2022/03/10 10:45:26;;;;;;;15.30;9.33;;;28.40;26.80;;;;;;5053802;28;20516;-66
2022/03/10 10:48:04;;;;;;;14.80;10.97;;;28.60;27.30;;;;;;5053790;28;20468;-67
2022/03/10 10:50:31;;;;;;;17.37;11.10;;;30.10;26.30;;;;;;5084349;22;20424;-86
2022/03/10 10:52:57;;;;;;;14.90;10.03;;;30.70;25.40;;;;;;5048741;28;20483;-86
2022/03/10 10:55:31;;;;;;;17.80;10.17;;;31.40;25.10;;;;;;5051847;28;20434;-83
2022/03/10 10:58:04;;;;;;;13.73;10.17;;;;;;;;;;5052136;28;20428;-86
2022/03/10 11:00:43;;;;;;;15.00;10.20;;;32.80;23.30;;;;;;5049339;28;21127;-86
2022/03/10 11:03:31;;;;;;;15.10;10.60;;;32.80;22.80;;;;;;5031591;28;20429;-86
2022/03/10 11:05:57;;;;;;;16.70;10.20;;;32.70;22.80;;;;;;5032759;28;20454;-84
2022/03/10 11:08:24;;;;;;;16.07;11.70;;;31.90;22.50;;;;;;5030695;28;20425;-85
2022/03/10 11:10:51;;;;;;;15.60;11.03;;;31.20;22.50;;;;;;5030360;28;20989;-85
2022/03/10 11:13:17;;;;;;;15.27;11.97;;;31.50;23.10;;;;;;5032901;28;20859;-86
2022/03/10 11:15:44;;;;;;;15.53;10.43;;;30.60;21.60;;;;;;5031469;28;20419;-85
2022/03/10 11:18:12;;;;;;;14.83;9.53;;;29.30;22.10;;;;;;5033033;28;20187;-86
2022/03/10 11:20:39;;;;;;;13.37;9.03;;;29.60;22.80;;;;;;5030940;28;20443;-86
2022/03/10 11:23:32;;;;;;;12.10;9.37;;;29.40;22.70;;;;;;5031056;28;20426;-85
2022/03/10 11:26:23;;;;;;;12.33;9.13;;;29.10;22.30;;;;;;5032169;28;20399;-85
2022/03/10 11:28:50;;;;;;;13.43;9.63;;;30.20;23.10;;;;;;5032227;28;20414;-85
2022/03/10 11:31:16;;;;;;;13.40;10.03;;;30.30;22.20;;;;;;5031538;28;20435;-84
2022/03/10 11:33:43;;;;;;;13.87;9.53;;;29.50;22.00;;;;;;5030391;28;20462;-85
2022/03/10 11:36:23;;;;;;;13.23;9.30;;;29.50;22.20;;;;;;5031658;28;20415;-85
2022/03/10 11:38:53;;;;;;;15.30;9.30;;;29.60;22.20;;;;;;5030506;28;20477;-85
2022/03/10 11:41:19;;;;;;;14.23;10.70;;;30.30;22.30;;;;;;5031679;28;20423;-85
2022/03/10 11:43:58;;;;;;;12.87;9.83;;;30.30;21.40;;;;;;5030648;28;20506;-85
2022/03/10 11:46:33;;;;;;;12.40;9.00;;;30.10;21.70;;;;;;5030062;28;20423;-86
2022/03/10 11:49:15;;;;;;;10.53;8.23;;;29.70;21.60;;;;;;5032027;28;20399;-84
2022/03/10 11:51:43;;;;;;;14.77;8.90;;;30.40;21.80;;;;;;5047413;28;20459;-85
2022/03/10 11:54:10;;;;;;;12.07;8.97;;;30.40;22.00;;;;;;5030923;28;20427;-84
2022/03/10 11:56:45;;;;;;;11.80;8.93;;;30.10;21.30;;;;;;5030202;28;21110;-85
2022/03/10 11:59:18;;;;;;;11.67;8.87;;;28.90;20.90;;;;;;5031572;28;20464;-84
2022/03/10 12:01:44;;;;;;;13.27;9.00;;;28.40;21.60;;;;;;5030059;28;20443;-84
2022/03/10 12:04:16;;;;;;;11.97;7.47;;;27.60;22.00;;;;;;5030542;28;20435;-84
2022/03/10 12:06:48;;;;;;;11.50;9.10;;;27.80;22.30;;;;;;5030159;28;20477;-85
2022/03/10 12:09:36;;;;;;;13.17;9.10;;;28.10;22.20;;;;;;5035699;28;20500;-84
2022/03/10 12:12:19;;;;;;;13.57;9.20;;;27.50;22.30;;;;;;5035502;28;20504;-85
2022/03/10 12:14:46;;;;;;;12.60;9.20;;;25.80;22.60;;;;;;5035019;28;20442;-84
2022/03/10 12:17:43;;;;;;;14.83;9.20;;;24.80;23.30;;;;;;5034742;28;20422;-84
2022/03/10 12:20:17;;;;;;;11.53;9.33;;;24.10;23.60;;;;;;5035570;28;20895;-85
2022/03/10 12:23:09;;;;;;;9.40;6.77;;;23.40;23.70;;;;;;5035397;28;20423;-84
2022/03/10 12:25:40;;;;;;;12.40;10.00;;;22.60;24.00;;;;;;5034017;28;20415;-84
2022/03/10 12:28:06;;;;;;;11.20;7.47;;;23.40;24.90;;;;;;5034819;28;20442;-85
2022/03/10 12:30:39;;;;;;;12.00;7.30;;;24.40;24.40;;;;;;5035663;28;20531;-84
2022/03/10 12:33:04;;;;;;;10.40;7.53;;;24.20;24.10;;;;;;5034292;28;20403;-83
2022/03/10 12:35:33;;;;;;;12.77;7.50;;;24.50;24.50;;;;;;5033637;28;20441;-83
2022/03/10 12:37:58;;;;;;;11.07;6.90;;;24.90;24.40;;;;;;5034540;28;20176;-83
2022/03/10 12:40:27;;;;;;;14.77;8.13;;;25.80;23.90;;;;;;5033741;28;20430;-84
2022/03/10 12:43:01;;;;;;;9.30;7.30;;;27.10;23.70;;;;;;5034023;28;20181;-84
2022/03/10 12:45:27;;;;;;;11.30;7.27;;;26.80;23.10;;;;;;5033816;28;20437;-83
2022/03/10 12:48:16;;;;;;;10.23;6.80;;;26.70;22.70;;;;;;5033296;28;20419;-83